Tiempo atmosférico en la estación meteorológica de Eivissa Aeropuerto, Illes Balears (6 m.)



Fecha
DESCASC
Temp. máxima en grados centígrados (hora)
DESCASC
Temp. mínima en grados centígrados (hora)
DESCASC
Temp. media en grados centígrados
DESCASC
Racha de viento máxima en m/sg (hora)
DESCASC
Velocidad máxima media en intervalos de 10 minutos(hora)
DESCASC
Precipitaciones diarias en mm
DESCASC
Precipitaciones de 00:00 a 06:00 en mm
DESCASC
Precipitaciones de 06:00 a 12:00 en mm
DESCASC
Precipitaciones de 12:00 a 18:00 en mm
DESCASC
Precipitaciones de 18:00 a 24:00 en mm
DESCASC

Gráficas

Temp. máximas Temp. mínimas Temp. medias Precipitaciones Rachas de viento máximas Velocidades máximas media en intervalos de 10 minutos

Datos horarios

Fecha y hora oficial Temperatura (ºC) Velocidad del viento (km/h) Dirección del viento Racha (km/h) Dirección de racha Precipitación (mm) Presión (hPa) Tendencia (hPa) Humedad (%)
2019-02-17 23:00:00 12 9 Este 15 Este 0 1022.6 0.3 85
2019-02-17 22:00:00 12.7 10 Este 21 Este 0 1022.7 0.5 83
2019-02-17 21:00:00 12.7 12 Este 18 Este 0 1022.4 0.3 84
2019-02-17 20:00:00 12.6 12 Este 21 Nordeste 0 1022.3 -0.2 82
2019-02-17 19:00:00 12.8 12 Este 22 Este 0 1022.2 -0.7 79
2019-02-17 18:00:00 13.7 14 Este 22 Este 0 1022.1 -1.1 75
2019-02-17 17:00:00 14.1 13 Este 22 Este 0 1022.5 -1.2 73
2019-02-17 16:00:00 14.5 13 Este 28 Nordeste 0 1022.9 -1.7 71
2019-02-17 15:00:00 15.3 17 Este 28 Este 0 1023.2 -1.5 70
2019-02-17 14:00:00 15.4 17 Este 24 Este 0 1023.7 -1.1 68
2019-02-17 13:00:00 15.4 16 Este 28 Norte 0 1024.6 -0.6 69
2019-02-17 12:00:00 14.9 21 Este 32 Este 0 1024.7 -0.1 70
2019-02-17 11:00:00 14.8 21 Este 32 Norte 0 1024.8 0.4 72
2019-02-17 10:00:00 13.7 17 Este 30 Este 0 1025.2 0.8 77
2019-02-17 09:00:00 12.8 17 Este 28 Este 0 1024.8 0.3 81
2019-02-17 08:00:00 9.7 14 Nordeste 21 Nordeste 0 1024.4 -0.3 89
2019-02-17 07:00:00 10.3 14 Nordeste 18 Nordeste 0 1024.4 -0.3 86
2019-02-17 06:00:00 10.7 15 Nordeste 21 Este 0 1024.5 -0.5 85
2019-02-17 05:00:00 12.6 14 Este 24 Nordeste 0 1024.7 -0.6 81
2019-02-17 04:00:00 12.4 13 Este 22 Este 0 1024.7 -1 82
2019-02-17 03:00:00 10.8 11 Nordeste 18 Nordeste 0 1025 -0.6 87
2019-02-17 02:00:00 10.9 10 Nordeste 21 Norte 0 1025.3 -0.5 87
2019-02-17 01:00:00 11.1 13 Nordeste 17 Nordeste 0 1025.7 -0.1 87
2019-02-17 00:00:00 10.8 10 Nordeste 15 Nordeste 0 1025.6 -0.2 88
2019-02-16 23:00:00 9.9 11 Norte 15 Nordeste 0 1025.8 0.1 88
2019-02-16 22:00:00 9.6 11 Nordeste 15 Nordeste 0 1025.8 0.3 88
2019-02-16 21:00:00 9.8 9 Nordeste 15 Nordeste 0 1025.8 0.5 84
2019-02-16 20:00:00 10.8 10 Norte 21 Norte 0 1025.7 -0.1 80
2019-02-16 19:00:00 12 18 Nordeste 30 Nordeste 0 1025.5 -0.7 79
2019-02-16 18:00:00 13.2 21 Nordeste 30 Nordeste 0 1025.3 -1.4 74
2019-02-16 17:00:00 14.1 20 Este 32 Este 0 1025.8 -1.2 71
2019-02-16 16:00:00 14.3 20 Este 32 Este 0 1026.2 -1.3 67
2019-02-16 15:00:00 14.8 20 Nordeste 32 Este 0 1026.7 -1.3 56
2019-02-16 14:00:00 15.2 22 Este 33 Este 0 1027 -0.8 51
2019-02-16 13:00:00 15.1 18 Este 32 Nordeste 0 1027.5 -0.2 55
2019-02-16 12:00:00 15 22 Este 32 Este 0 1028 0.5 57
2019-02-16 11:00:00 14.3 16 Este 26 Este 0 1027.8 1 68
2019-02-16 10:00:00 12.8 13 Nordeste 26 Nordeste 0 1027.7 1.2 79
2019-02-16 09:00:00 11 14 Nordeste 18 Nordeste 0 1027.5 1.2 82
2019-02-16 08:00:00 6.9 11 Norte 15 Norte 0 1026.8 0.7 90
2019-02-16 07:00:00 7 9 Norte 15 Norte 0 1026.5 0.3 92
2019-02-16 06:00:00 7.5 12 Norte 15 Norte 0 1026.3 -0.2 91
2019-02-16 05:00:00 7.7 11 Norte 13 Norte 0 1026.1 -0.7 91
2019-02-16 04:00:00 9 13 Norte 21 Norte 0 1026.2 -0.9 89
2019-02-16 03:00:00 7.9 12 Norte 17 Norte 0 1026.5 -0.7 92
2019-02-16 02:00:00 8.5 11 Norte 13 Norte 0 1026.8 -0.2 91
2019-02-16 01:00:00 7.9 10 Norte 15 Norte 0 1027.1 0.3 91
2019-02-16 00:00:00 9 12 Norte 15 Norte 0 1027.2 0.4 88
2019-02-15 23:00:00 9.3 11 Nordeste 18 Norte 0 1027 0.2 87
2019-02-15 22:00:00 10.8 14 Norte 21 Norte 0 1026.8 0.1 85
2019-02-15 21:00:00 9 12 Nordeste 17 Nordeste 0 1026.8 0.5 86
2019-02-15 20:00:00 10 14 Nordeste 18 Nordeste 0 1026.8 0.3 85
2019-02-15 19:00:00 10.9 15 Nordeste 22 Nordeste 0 1026.7 0.2 81
2019-02-15 18:00:00 13.1 17 Nordeste 26 Nordeste 0 1026.3 -0.7 74
2019-02-15 17:00:00 14.1 17 Nordeste 32 Este 0 1026.5 -1.1 70
2019-02-15 16:00:00 14.5 20 Este 30 Este 0 1026.5 -2 70
2019-02-15 15:00:00 14.9 21 Este 30 Este 0 1027 -2.1 70
2019-02-15 14:00:00 14.4 15 Nordeste 24 Nordeste 0 1027.6 -1.4 72
2019-02-15 13:00:00 14.5 15 Nordeste 26 Nordeste 0 1028.5 -0.3 71
2019-02-15 12:00:00 14.4 18 Nordeste 28 Nordeste 0 1029.1 0.1 71
2019-02-15 11:00:00 14 17 Nordeste 26 Este 0 1029 0.5 73
2019-02-15 10:00:00 12.3 15 Nordeste 21 Nordeste 0 1028.8 0.6 79
2019-02-15 09:00:00 11.4 12 Nordeste 18 Nordeste 0 1029 0.7 82
2019-02-15 08:00:00 9.4 11 Nordeste 17 Norte 0 1028.5 0.5 86
2019-02-15 07:00:00 9.1 12 Nordeste 17 Nordeste 0 1028.2 0 88
2019-02-15 06:00:00 7 9 Norte 11 Norte 0 1028.3 -0.4 90
2019-02-15 05:00:00 7.1 6 Norte 13 Norte 0 1028 -1.2 90
2019-02-15 04:00:00 7.3 5 Norte 13 Norte 0 1028.2 -1 89
2019-02-15 03:00:00 7.7 5 Norte 13 Norte 0 1028.7 -0.6 89
2019-02-15 02:00:00 8.4 9 Noroeste 13 Norte 0 1029.2 -0.6 86
2019-02-15 01:00:00 8.6 11 Norte 17 Nordeste 0 1029.2 -0.9 86
2019-02-15 00:00:00 9.4 12 Nordeste 15 Nordeste 0 1029.3 -0.7 83
2019-02-14 23:00:00 10.4 8 Nordeste 15 Nordeste 0 1029.8 -0.2 80
2019-02-14 22:00:00 10.4 8 Norte 15 Este 0 1030.1 0.1 79
2019-02-14 21:00:00 12.2 11 Este 22 Este 0 1030 0 74
2019-02-14 20:00:00 12.2 14 Este 22 Este 0 1030 -0.2 75
2019-02-14 19:00:00 12.3 11 Nordeste 18 Este 0 1030 -0.5 73
2019-02-14 18:00:00 12.8 11 Nordeste 24 Nordeste 0 1030 -1 70
2019-02-14 17:00:00 13.5 16 Este 26 Nordeste 0 1030.2 -1.6 65
2019-02-14 16:00:00 13.7 15 Nordeste 26 Este 0 1030.5 -2 65
2019-02-14 15:00:00 14.5 17 Nordeste 26 Este 0 1031 -1.9 63
2019-02-14 14:00:00 14.4 15 Nordeste 26 Este 0 1031.8 -1.2 61
2019-02-14 13:00:00 14.3 14 Nordeste 28 Nordeste 0 1032.5 -0.2 62
2019-02-14 12:00:00 14.3 18 Nordeste 28 Nordeste 0 1032.9 0.2 61
2019-02-14 11:00:00 13.4 14 Este 28 Nordeste 0 1033 0.9 64
2019-02-14 10:00:00 12.8 16 Nordeste 24 Nordeste 0 1032.7 1 65
2019-02-14 09:00:00 11.7 12 Nordeste 26 Este 0 1032.7 1 68
2019-02-14 08:00:00 11.8 17 Este 28 Nordeste 0 1032.1 0.5 66
2019-02-14 07:00:00 11.6 14 Este 33 Este 0 1031.7 0.4 68
2019-02-14 06:00:00 11.7 17 Este 32 Este 0 1031.7 0.4 66
2019-02-14 05:00:00 11.6 16 Este 30 Este 0 1031.6 0 66
2019-02-14 04:00:00 11.4 16 Este 30 Este 0 1031.3 -0.5 67
2019-02-14 03:00:00 11.5 18 Nordeste 30 Este 0 1031.3 -0.4 66
2019-02-14 02:00:00 11.7 20 Este 30 Este 0 1031.6 -0.2 68
2019-02-14 01:00:00 11.6 17 Nordeste 26 Este 0 1031.8 0.5 68
2019-02-14 00:00:00 11.8 15 Este 28 Este 0 1031.7 0.5 67
2019-02-13 23:00:00 11.3 13 Este 22 Sudeste 0 1031.8 0.8 66
2019-02-13 22:00:00 10.5 9 Nordeste 22 Norte 0 1031.3 0.6 67
2019-02-13 21:00:00 9 5 Norte 15 Norte 0 1031.2 0.5 74
2019-02-13 20:00:00 11 9 Este 17 Este 0 1031 0.3 66
2019-02-13 19:00:00 11.5 9 Este 18 Este 0 1030.7 0 64
2019-02-13 18:00:00 12.9 10 Este 18 Este 0 1030.7 -0.1 59
2019-02-13 17:00:00 14 13 Este 21 Sudeste 0 1030.7 -0.4 56
2019-02-13 16:00:00 14.5 13 Este 24 Este 0 1030.7 -0.6 55
2019-02-13 15:00:00 14.5 15 Este 26 Este 0 1030.8 -0.9 56
2019-02-13 14:00:00 15.5 9 Sur 21 Sur 0 1031.1 -0.2 50
2019-02-13 13:00:00 15.6 12 Sudeste 24 Este 0 1031.3 0.2 48
2019-02-13 12:00:00 15.1 10 Sur 18 Sur 0 1031.7 0.9 50
2019-02-13 11:00:00 14.2 10 Sur 18 Sur 0 1031.3 1.1 53
2019-02-13 10:00:00 12.1 3 Nordeste 9 Norte 0 1031.1 1.4 77
2019-02-13 09:00:00 7.9 5 Norte 13 Norte 0 1030.8 1.3 89
2019-02-13 08:00:00 5.5 7 Norte 13 Norte 0 1030.2 0.5 90
2019-02-13 07:00:00 5.3 6 Norte 11 Norte 0 1029.7 -0.1 93
2019-02-13 06:00:00 4.6 0 Calma 8 Norte 0 1029.5 -0.7 94
2019-02-13 05:00:00 5.1 4 Norte 11 Norte 0 1029.7 -0.6 92
2019-02-13 04:00:00 5.4 7 Norte 9 Norte 0 1029.8 -0.7 91
2019-02-13 03:00:00 5.5 5 Norte 9 Noroeste 0 1030.2 -0.5 91
2019-02-13 02:00:00 5.1 6 Norte 8 Norte 0 1030.3 -0.7 90
2019-02-13 01:00:00 5.8 5 Noroeste 8 Oeste 0 1030.5 -0.6 90
2019-02-13 00:00:00 6.1 2 Noroeste 8 Noroeste 0 1030.7 -0.1 87
2019-02-12 23:00:00 5.9 0 Calma 11 Noroeste 0 1031 0 86
2019-02-12 22:00:00 6.5 3 Noroeste 9 Noroeste 0 1031.1 0.4 83
2019-02-12 21:00:00 6.9 6 Noroeste 11 Norte 0 1030.8 0.6 79
2019-02-12 20:00:00 8.2 0 Calma 13 Norte 0 1031 0.8 75
2019-02-12 19:00:00 10.7 8 Noroeste 13 Noroeste 0 1030.7 0.5 69
2019-02-12 18:00:00 13.3 7 Este 18 Este 0 1030.2 0 68
2019-02-12 17:00:00 14.5 10 Este 18 Nordeste 0 1030.2 -0.1 57
2019-02-12 16:00:00 14.5 10 Nordeste 21 Noroeste 0 1030.2 -0.8 57
2019-02-12 15:00:00 14.9 12 Noroeste 22 Oeste 0 1030.2 -1 49
2019-02-12 14:00:00 15.7 15 Sur 22 Sur 0 1030.3 -0.7 58
2019-02-12 13:00:00 15.1 14 Sudoeste 18 Sur 0 1031 0.4 59
2019-02-12 12:00:00 13.8 13 Sudoeste 17 Sudoeste 0 1031.2 1.2 64
2019-02-12 11:00:00 14.6 7 Este 11 Este 0 1031 1.7 59
2019-02-12 10:00:00 12 2 Sur 9 Oeste 0 1030.6 1.8 75
2019-02-12 09:00:00 7.3 3 Noroeste 9 Norte 0 1030 1.2 88
2019-02-12 08:00:00 5.5 4 Norte 9 Noroeste 0 1029.3 0.5 88
2019-02-12 07:00:00 4 4 Norte 5 Nordeste 0 1028.8 0.2 90
2019-02-12 06:00:00 4.4 2 Sur 8 Norte 0 1028.8 0.2 91
2019-02-12 05:00:00 5.2 5 Nordeste 8 Nordeste 0 1028.8 0.2 88
2019-02-12 04:00:00 4.1 0 Calma 8 Noroeste 0 1028.6 0.3 89
2019-02-12 03:00:00 4.9 4 Norte 8 Norte 0 1028.6 0.3 87
2019-02-12 02:00:00 6.1 4 Norte 8 Norte 0 1028.6 0.6 82
2019-02-12 01:00:00 5.4 4 Noroeste 11 Norte 0 1028.3 0.7 80
2019-02-12 00:00:00 5.8 3 Norte 13 Norte 0 1028.3 1.1 77
2019-02-11 23:00:00 5.9 7 Norte 9 Norte 0 1028 1.4 75
2019-02-11 22:00:00 6.7 8 Noroeste 15 Oeste 0 1027.6 1.5 71
2019-02-11 21:00:00 6.7 5 Norte 9 Norte 0 1027.2 1.5 73
2019-02-11 20:00:00 7.5 9 Noroeste 13 Noroeste 0 1026.6 1.3 72
2019-02-11 19:00:00 10.7 6 Norte 13 Nordeste 0 1026.1 1 59
2019-02-11 18:00:00 12.3 6 Nordeste 21 Nordeste 0 1025.7 0.7 55
2019-02-11 17:00:00 13.2 13 Nordeste 28 Nordeste 0 1025.3 0.5 50
2019-02-11 16:00:00 13.5 13 Nordeste 28 Norte 0 1025.1 0.1 49
2019-02-11 15:00:00 14.2 15 Nordeste 24 Nordeste 0 1025 -0.4 49
2019-02-11 14:00:00 15 15 Nordeste 30 Nordeste 0 1024.8 0 46
2019-02-11 13:00:00 14.7 19 Norte 32 Nordeste 0 1025 0.5 48
2019-02-11 12:00:00 13.9 21 Norte 30 Norte 0 1025.4 1.6 49
2019-02-11 11:00:00 14.1 18 Nordeste 32 Norte 0 1024.8 2 52
2019-02-11 10:00:00 13.7 18 Norte 26 Norte 0 1024.5 2.6 57
2019-02-11 09:00:00 11.6 4 Nordeste 13 Nordeste 0 1023.8 2.8 78
2019-02-11 08:00:00 9.3 4 Este 11 Noroeste 0 1022.8 2.5 75
2019-02-11 07:00:00 10.8 4 Noroeste 13 Norte 0 1021.9 2.3 70
2019-02-11 06:00:00 12.7 5 Nordeste 35 Norte 0 1021 1.8 60
2019-02-11 05:00:00 14.2 7 Norte 26 Noroeste 0 1020.3 1.2 57
2019-02-11 04:00:00 14.6 16 Norte 52 Noroeste 0 1019.6 0.4 59
2019-02-11 03:00:00 15 33 Noroeste 54 Noroeste 0 1019.2 0 64
2019-02-11 02:00:00 15.6 29 Noroeste 48 Noroeste 0 1019.1 -0.1 59
2019-02-11 01:00:00 15.5 27 Oeste 46 Oeste 0 1019.2 0.1 59
2019-02-11 00:00:00 15.5 17 Oeste 45 Oeste 0 1019.2 0.4 57
2019-02-10 23:00:00 15.6 27 Oeste 41 Oeste 0 1019.2 0.4 57
2019-02-10 22:00:00 13.3 16 Sudoeste 26 Oeste 0 1019.1 1 84
2019-02-10 21:00:00 12.6 15 Sudoeste 22 Sudoeste 0 1018.8 1.1 87
2019-02-10 20:00:00 13.5 14 Sudoeste 24 Sudoeste 0 1018.8 1.1 82
2019-02-10 19:00:00 14.5 17 Sudoeste 26 Sudoeste 0 1018.1 0.5 73
2019-02-10 18:00:00 15.3 23 Sudoeste 32 Oeste 0 1017.7 0.1 59
2019-02-10 17:00:00 15.9 19 Oeste 41 Oeste 0 1017.7 -0.3 54
2019-02-10 16:00:00 16.4 26 Sudoeste 37 Sudoeste 0 1017.6 -1.2 58
2019-02-10 15:00:00 16.7 25 Sudoeste 42 Oeste 0 1017.6 -1.9 57
2019-02-10 14:00:00 17.2 31 Sudoeste 45 Sudoeste 0 1018 -1.4 52
2019-02-10 13:00:00 16.5 25 Sudoeste 35 Sudoeste 0 1018.8 -0.5 70
2019-02-10 12:00:00 15.9 26 Sudoeste 37 Sudoeste 0 1019.5 0.3 77
2019-02-10 11:00:00 15.6 29 Sudoeste 37 Sudoeste 0 1019.4 0.8 74
2019-02-10 10:00:00 14.5 22 Sudoeste 32 Sudoeste 0 1019.3 0.9 84
2019-02-10 09:00:00 13.9 22 Sudoeste 33 Sudoeste 0 1019.2 0.8 84
2019-02-10 08:00:00 13.5 20 Sudoeste 32 Sudoeste 0 1018.6 -0.1 83
2019-02-10 07:00:00 13.4 17 Sudoeste 32 Sudoeste 0 1018.4 -0.6 83
2019-02-10 06:00:00 13.3 16 Sudoeste 32 Sudoeste 0 1018.4 -0.9 83
2019-02-10 05:00:00 13.5 22 Sudoeste 32 Sudoeste 0 1018.7 -1.1 82
2019-02-10 04:00:00 13.3 20 Sudoeste 30 Sudoeste 0 1019 -0.9 83
2019-02-10 03:00:00 13.2 20 Sudoeste 30 Sudoeste 0 1019.3 -0.8 82
2019-02-10 02:00:00 12.8 18 Sudoeste 30 Sudoeste 0 1019.8 -0.5 83
2019-02-10 01:00:00 13 16 Sudoeste 28 Sudoeste 0 1019.9 -0.4 83
2019-02-10 00:00:00 13.1 13 Sudoeste 22 Sudoeste 0 1020.1 -0.3 85
2019-02-09 23:00:00 13.2 13 Sudoeste 22 Sudoeste 0 1020.3 0.2 86
2019-02-09 22:00:00 13.1 13 Sudoeste 18 Sudoeste 0 1020.3 0.1 87
2019-02-09 21:00:00 13 11 Sudoeste 21 Sudoeste 0 1020.4 0.5 87
2019-02-09 20:00:00 12.4 12 Sudoeste 17 Sudoeste 0 1020.1 0.1 88
2019-02-09 19:00:00 12.2 8 Oeste 17 Sudoeste 0 1020.2 0.3 88
2019-02-09 18:00:00 14.3 12 Sudoeste 21 Sudoeste 0 1019.9 -0.3 82
2019-02-09 17:00:00 15.3 15 Sudoeste 24 Sudoeste 0 1020 -0.6 81
2019-02-09 16:00:00 15.7 18 Sudoeste 28 Sudoeste 0 1019.9 -1.3 77
2019-02-09 15:00:00 15.9 21 Sudoeste 30 Sudoeste 0 1020.2 -1.3 78
2019-02-09 14:00:00 16.1 20 Sudoeste 30 Sudoeste 0 1020.6 -0.8 77
2019-02-09 13:00:00 16 19 Sudoeste 28 Sudoeste 0 1021.2 0.1 79
2019-02-09 12:00:00 15.7 21 Sudoeste 28 Sudoeste 0 1021.5 0.7 81
2019-02-09 11:00:00 15.3 16 Sudoeste 22 Sudoeste 0 1021.4 1.3 83
2019-02-09 10:00:00 14.4 7 Sudoeste 13 Sudoeste 0 1021.1 1.5 86
2019-02-09 09:00:00 11 0 Calma 15 Norte 0 1020.8 1.5 90
2019-02-09 08:00:00 12.7 13 Sudoeste 22 Sudoeste 0 1020.1 1.3 88
2019-02-09 07:00:00 13 18 Sudoeste 24 Sudoeste 0 1019.6 0.6 88
2019-02-09 06:00:00 13.2 16 Sudoeste 24 Sudoeste 0 1019.3 0.1 87
2019-02-09 05:00:00 13.3 16 Sudoeste 28 Oeste 0 1018.8 -0.7 87
2019-02-09 04:00:00 13.4 18 Sudoeste 28 Sudoeste 0 1019 -0.7 87
2019-02-09 03:00:00 13.3 19 Sudoeste 26 Sudoeste 0 1019.2 -0.6 86
2019-02-09 02:00:00 13.4 15 Sudoeste 24 Sudoeste 0 1019.5 -0.3 86
2019-02-09 01:00:00 13.2 16 Sudoeste 26 Sudoeste 0 1019.7 0.1 87
2019-02-09 00:00:00 13.1 18 Sudoeste 26 Sudoeste 0 1019.8 0.3 84
2019-02-08 23:00:00 13 15 Sudoeste 24 Sudoeste 0 1019.8 0.2 85
2019-02-08 22:00:00 13 13 Sudoeste 24 Sudoeste 0 1019.6 0 85
2019-02-08 21:00:00 13.2 15 Sudoeste 22 Sudoeste 0 1019.5 -0.3 86
2019-02-08 20:00:00 13.4 15 Sudoeste 24 Sudoeste 0 1019.6 -0.4 84
2019-02-08 19:00:00 13.6 15 Sudoeste 22 Sudoeste 0 1019.6 -0.7 81
2019-02-08 18:00:00 13.7 14 Sur 26 Sur 0 1019.8 -1 79
2019-02-08 17:00:00 14.3 17 Sudoeste 26 Sudoeste 0 1020 -1.6 75
2019-02-08 16:00:00 14.9 15 Sudoeste 26 Sudoeste 0 1020.3 -1.8 71
2019-02-08 15:00:00 14.9 16 Sur 24 Sudoeste 0 1020.8 -1.9 70
2019-02-08 14:00:00 14.4 16 Sudoeste 22 Sudoeste 0 1021.6 -1.1 72
2019-02-08 13:00:00 14.6 12 Sudoeste 17 Sudoeste 0 1022.1 -0.5 72
2019-02-08 12:00:00 14.5 8 Sur 17 Sur 0 1022.7 0.4 72
2019-02-08 11:00:00 14.1 11 Sur 18 Sudoeste 0 1022.7 0.8 75
2019-02-08 10:00:00 12.8 10 Sur 15 Sudeste 0 1022.6 0.8 85
2019-02-08 09:00:00 10 0 Calma 9 Noroeste 0 1022.3 0.8 93
2019-02-08 08:00:00 8.1 5 Norte 8 Noroeste 0 1021.9 0.4 94
2019-02-08 07:00:00 7.9 5 Norte 8 Norte 0 1021.8 0 93
2019-02-08 06:00:00 8.2 4 Noroeste 9 Norte 0 1021.5 -0.6 92
2019-02-08 05:00:00 8.8 7 Norte 9 Norte 0 1021.5 -0.7 91
2019-02-08 04:00:00 9.5 5 Norte 9 Norte 0 1021.8 -0.3 90
2019-02-08 03:00:00 12.4 8 Este 22 Este 0 1022.1 0.3 87
2019-02-08 02:00:00 11.3 10 Nordeste 15 Nordeste 0 1022.2 0.8 89
2019-02-08 01:00:00 7.4 5 Nordeste 13 Nordeste 0 1022.1 1.1 80
2019-02-08 00:00:00 7.8 0 Calma 4 Noroeste 0 1021.8 1.5 76
2019-02-07 23:00:00 8.3 0 Calma 8 Noroeste 0 1021.4 1.4 75
2019-02-07 22:00:00 8.3 0 Calma 5 Noroeste 0 1021 1.5 74
2019-02-07 21:00:00 10.1 0 Calma 9 Norte 0 1020.3 1.1 68
2019-02-07 20:00:00 10.6 0 Calma 9 Norte 0 1020 1.2 68
2019-02-07 19:00:00 13.5 5 Noroeste 8 Noroeste 0 1019.5 1.1 68
2019-02-07 18:00:00 15.5 0 Calma 11 Este 0 1019.2 0.7 65
2019-02-07 17:00:00 16.7 5 Nordeste 13 Este 0 1018.8 0.2 61
2019-02-07 16:00:00 17.6 9 Este 15 Sudeste 0 1018.4 -0.9 60
2019-02-07 15:00:00 17.6 6 Este 15 Este 0 1018.5 -1.3 67
2019-02-07 14:00:00 17.7 8 Este 21 Este 0 1018.6 -1.1 64
2019-02-07 13:00:00 18.2 7 Norte 22 Oeste 0 1019.3 0 51
2019-02-07 12:00:00 16.8 14 Noroeste 24 Noroeste 0 1019.8 0.9 51
2019-02-07 11:00:00 15 9 Sur 11 Sur 0 1019.7 1 75
2019-02-07 10:00:00 13.8 6 Sur 11 Oeste 0 1019.3 0.8 82
2019-02-07 09:00:00 9.9 2 Nordeste 8 Norte 0 1018.9 0.2 92
2019-02-07 08:00:00 8.4 3 Nordeste 11 Noroeste 0 1018.7 0 93
2019-02-07 07:00:00 9 5 Norte 8 Noroeste 0 1018.5 -0.6 93
2019-02-07 06:00:00 10.2 2 Noroeste 15 Oeste 0 1018.7 -0.8 92
2019-02-07 05:00:00 9.7 2 Oeste 11 Sudoeste 0 1018.7 -1.2 91
2019-02-07 04:00:00 11.2 9 Oeste 15 Sudoeste 0 1019.1 -1.3 91
2019-02-07 03:00:00 11.6 8 Sudoeste 18 Sudoeste 0 1019.5 -1.1 90
2019-02-07 02:00:00 12.4 13 Sudoeste 17 Sudoeste 0 1019.9 -1 90
2019-02-07 01:00:00 12.7 10 Sudoeste 17 Sudoeste 0 1020.4 -0.7 90
2019-02-07 00:00:00 12.2 12 Sudoeste 15 Sudoeste 0 1020.6 -0.7 90
2019-02-06 23:00:00 12.8 11 Sudoeste 17 Sudoeste 0 1020.9 -0.5 89
2019-02-06 22:00:00 13 13 Sudoeste 18 Sudoeste 0 1021.1 -0.3 87
2019-02-06 21:00:00 13.3 12 Sudoeste 17 Sudoeste 0 1021.3 0.2 86
2019-02-06 20:00:00 13.4 10 Sudoeste 17 Sudoeste 0 1021.4 0.1 87
2019-02-06 19:00:00 13.5 12 Sudoeste 17 Sudoeste 0 1021.4 -0.4 87
2019-02-06 18:00:00 14.1 10 Sudoeste 17 Sudoeste 0 1021.1 -1 82
2019-02-06 17:00:00 15 13 Sudoeste 18 Sudoeste 0 1021.3 -1.4 81
2019-02-06 16:00:00 15.5 15 Sudoeste 22 Sudoeste 0 1021.8 -1.7 78
2019-02-06 15:00:00 15.9 15 Sudoeste 22 Sudoeste 0 1022.1 -2.2 77
2019-02-06 14:00:00 16 15 Sudoeste 22 Sudoeste 0 1022.7 -1.7 75
2019-02-06 13:00:00 16 14 Sur 24 Sur 0 1023.5 -1.1 76
2019-02-06 12:00:00 15.6 13 Sudoeste 22 Sudoeste 0 1024.3 -0.1 77
2019-02-06 11:00:00 15.2 12 Sur 17 Sudoeste 0 1024.4 0.4 77
2019-02-06 10:00:00 13.5 5 Sudoeste 8 Sudoeste 0 1024.6 0.6 82
2019-02-06 09:00:00 8.4 0 Calma 11 Oeste 0 1024.4 0.5 86
2019-02-06 08:00:00 6.2 0 Calma 8 Oeste 0 1024 0.2 84
2019-02-06 07:00:00 4.9 3 Noroeste 5 Oeste 0 1024 -0.2 78
2019-02-06 06:00:00 5.2 0 Calma 8 Noroeste 0 1023.9 -0.6 74
2019-02-06 05:00:00 5.3 2 Oeste 8 Norte 0 1023.8 -0.7 74
2019-02-06 04:00:00 6.8 6 Noroeste 8 Noroeste 0 1024.2 -0.6 73
2019-02-06 03:00:00 5.8 0 Calma 11 Noroeste 0 1024.5 -0.3 79
2019-02-06 02:00:00 5.6 0 Calma 11 Norte 0 1024.5 -0.2 80
2019-02-06 01:00:00 6.8 6 Norte 11 Noroeste 0 1024.8 0 79
2019-02-06 00:00:00 6.5 4 Norte 9 Noroeste 0 1024.8 0.3 81
2019-02-05 23:00:00 8 4 Norte 9 Oeste 0 1024.7 0.4 80
2019-02-05 22:00:00 9.2 6 Noroeste 15 Noroeste 0 1024.8 0.9 77
2019-02-05 21:00:00 8.9 7 Noroeste 11 Noroeste 0 1024.5 1 74
2019-02-05 20:00:00 10.2 5 Noroeste 9 Oeste 0 1024.3 0.8 70
2019-02-05 19:00:00 11.9 6 Oeste 15 Sudoeste 0 1023.9 0.4 69
2019-02-05 18:00:00 14.3 9 Sur 21 Sudoeste 0 1023.5 -0.3 65
2019-02-05 17:00:00 15.3 16 Sudoeste 22 Sudoeste 0 1023.5 -0.8 56
2019-02-05 16:00:00 16.5 10 Sudoeste 30 Sur 0 1023.5 -1.2 54
2019-02-05 15:00:00 16.5 19 Sudoeste 28 Sudoeste 0 1023.8 -1.5 54
2019-02-05 14:00:00 16.9 19 Sudoeste 28 Sudoeste 0 1024.3 -1.2 47
2019-02-05 13:00:00 16 22 Sudoeste 28 Sudoeste 0 1024.7 -0.8 51
2019-02-05 12:00:00 15.9 14 Sudoeste 18 Sudoeste 0 1025.3 0.1 49
2019-02-05 11:00:00 14.5 8 Sur 11 Sur 0 1025.5 0.8 64
2019-02-05 10:00:00 11.4 0 Calma 9 Oeste 0 1025.5 1.2 88
2019-02-05 09:00:00 5.5 0 Calma 9 Oeste 0 1025.2 0.7 90
2019-02-05 08:00:00 6.3 3 Noroeste 11 Norte 0 1024.7 0.2 89
2019-02-05 07:00:00 5.5 6 Norte 8 Norte 0 1024.3 -0.5 89
2019-02-05 06:00:00 4.3 4 Noroeste -- -- 0 1024.5 -0.7 87
2019-02-05 05:00:00 -- -- -- -- -- 0 1024.5 -0.7 --
2019-02-05 04:00:00 3.9 2 Noroeste 9 Norte 0 1024.8 -0.8 77
2019-02-05 03:00:00 4.5 3 Norte 5 Nordeste 0 1025.2 -0.5 75
2019-02-05 02:00:00 3.7 2 Norte 5 Norte 0 1025.2 -0.6 77
2019-02-05 01:00:00 3.8 4 Norte 5 Norte 0 1025.6 -0.4 75
2019-02-05 00:00:00 3.7 3 Noroeste 5 Noroeste 0 1025.7 0 70
2019-02-04 23:00:00 4.7 0 Calma 8 Noroeste 0 1025.8 0.3 65
2019-02-04 22:00:00 5.7 4 Noroeste 11 Noroeste 0 1026 0.7 59
2019-02-04 21:00:00 4.8 4 Noroeste 11 Noroeste 0 1025.7 0.9 61
2019-02-04 20:00:00 5.8 6 Norte 15 Noroeste 0 1025.5 1 57
2019-02-04 19:00:00 7.6 8 Noroeste 15 Oeste 0 1025.3 1 54
2019-02-04 18:00:00 10 10 Sudoeste 21 Sudoeste 0 1024.8 0.2 46
2019-02-04 17:00:00 11.9 17 Sudoeste 28 Sudoeste 0 1024.5 -0.5 41
2019-02-04 16:00:00 12.5 22 Sudoeste 32 Sudoeste 0 1024.3 -0.9 39
2019-02-04 15:00:00 12.9 26 Sudoeste 46 Oeste 0 1024.6 -1 40
2019-02-04 14:00:00 13.5 19 Oeste 39 Oeste 0 1025 -0.5 40
2019-02-04 13:00:00 13 17 Sudoeste 30 Sudoeste 0 1025.2 0.3 43
2019-02-04 12:00:00 12.7 13 Noroeste 28 Noroeste 0 1025.6 0.3 34
2019-02-04 11:00:00 11.9 6 Norte 15 Norte 0 1025.5 1.1 43
2019-02-04 10:00:00 10.7 0 Calma 5 Sudeste 0 1024.9 0.8 48
2019-02-04 09:00:00 5.6 2 Sur 13 Noroeste 0 1025.3 1.7 65
2019-02-04 08:00:00 5.2 8 Noroeste 15 Norte 0 1024.4 1.3 61
2019-02-04 07:00:00 6.7 6 Noroeste 26 Noroeste 0 1024.1 1.4 56
2019-02-04 06:00:00 7.8 17 Noroeste 26 Noroeste 0 1023.6 -- 53
2019-02-04 05:00:00 8 4 Norte 13 Nordeste 0 1023.1 1.2 49
2019-02-04 04:00:00 8 6 Oeste 33 Norte 0 1022.7 0.9 47
2019-02-04 03:00:00 9.2 19 Noroeste 42 Norte 0 -- -- 43
2019-02-04 02:00:00 9.2 25 Noroeste 39 Noroeste 0 1021.9 0.8 44
2019-02-04 01:00:00 9.3 24 Norte 45 Norte 0 1021.8 1.4 46
2019-02-04 00:00:00 9.8 22 Norte 45 Norte 0 1021.5 1.5 34
2019-02-03 23:00:00 10 24 Norte 45 Norte 0 1021.1 1.5 30
2019-02-03 22:00:00 10.3 26 Norte 45 Norte 0 1020.4 1.4 26
2019-02-03 21:00:00 10.2 18 Norte 33 Norte 0 1020 1.7 27
2019-02-03 20:00:00 10.5 16 Norte 33 Noroeste 0 1019.6 1.7 25
2019-02-03 19:00:00 10.2 16 Norte 33 Norte 0 1019 1.7 24
2019-02-03 18:00:00 10.4 21 Norte 41 Norte 0 1018.3 2.2 28
2019-02-03 17:00:00 11.1 26 Norte 50 Norte 0 1017.9 1.7 28
2019-02-03 16:00:00 11.3 25 Norte 48 Norte 0 1017.3 1.3 27
2019-02-03 15:00:00 11.3 27 Norte 54 Noroeste 0 1016.1 -0.1 28
2019-02-03 14:00:00 11.2 32 Norte 52 Norte 0 1016.2 0.5 29
2019-02-03 13:00:00 11.1 21 Noroeste 45 Noroeste 0 1016 1.3 35
2019-02-03 12:00:00 11.4 25 Noroeste 45 Noroeste 0 1016.2 2.1 33
2019-02-03 11:00:00 10.7 22 Noroeste 46 Noroeste 0 1015.7 -- 38
2019-02-03 10:00:00 9.7 27 Noroeste 42 Norte 0 1014.7 3 39
2019-02-03 09:00:00 8.6 25 Noroeste 50 Norte 0 1014.1 3.2 42
2019-02-03 08:00:00 8.6 32 Noroeste 54 Noroeste 0 -- -- 42
2019-02-03 07:00:00 8.9 27 Noroeste 48 Norte 0 1011.7 2.1 42
2019-02-03 06:00:00 9.3 29 Noroeste 58 Norte 0 1010.9 1.4 34
2019-02-03 05:00:00 9.7 33 Noroeste 61 Noroeste 0 1010.3 1 34
2019-02-03 04:00:00 9.6 24 Noroeste 59 Norte 0 1009.6 0.5 36
2019-02-03 03:00:00 10 33 Noroeste 59 Noroeste 0 1009.5 0.9 38
2019-02-03 02:00:00 10 22 Noroeste 61 Noroeste 0 1009.3 1.4 36
2019-02-03 01:00:00 10.3 28 Noroeste 54 Noroeste 0 1009.1 2.4 34
2019-02-03 00:00:00 10.3 29 Noroeste 54 Norte 0 1008.6 2.4 33
2019-02-02 23:00:00 10.7 37 Noroeste 68 Noroeste 0 1007.9 2.2 29
2019-02-02 22:00:00 10.8 37 Noroeste 71 Noroeste 0 1006.7 2 31
2019-02-02 21:00:00 11.3 36 Noroeste 61 Noroeste 0 1006.2 2.4 30
2019-02-02 20:00:00 11.8 21 Noroeste 41 Noroeste 0 1005.7 3 33
2019-02-02 19:00:00 12.4 19 Noroeste 42 Noroeste 0 1004.7 3.2 42
2019-02-02 18:00:00 13 27 Noroeste 52 Noroeste 0 1003.8 3.1 35
2019-02-02 17:00:00 14.3 36 Noroeste 58 Oeste 0 1002.7 2.6 35
2019-02-02 16:00:00 15.1 31 Noroeste 52 Noroeste 0 1001.5 1.4 34
2019-02-02 15:00:00 13.1 21 Oeste 55 Noroeste 0 1000.7 0.4 46
2019-02-02 14:00:00 14.1 31 Oeste 55 Oeste 0 1000.1 0.6 42
2019-02-02 13:00:00 13.5 36 Oeste 59 Oeste 0 1000.1 1.8 45
2019-02-02 12:00:00 13.6 28 Oeste 61 Oeste 0 1000.3 3.1 44
2019-02-02 11:00:00 12.9 33 Oeste 59 Oeste 0 999.5 2.9 46
2019-02-02 10:00:00 12.1 39 Oeste 68 Oeste 0 998.3 2.3 45
2019-02-02 09:00:00 11.5 42 Oeste 68 Oeste 0 997.2 1.1 47
2019-02-02 08:00:00 11.3 37 Oeste 68 Oeste 0 996.6 0.6 46
2019-02-02 07:00:00 11.7 38 Oeste 61 Oeste 0 996 0.2 46
2019-02-02 06:00:00 11.7 32 Oeste 65 Oeste 0 996.1 0.4 45
2019-02-02 05:00:00 11.9 43 Oeste 67 Oeste 0 996 0.9 42
2019-02-02 04:00:00 12.1 43 Oeste 61 Sudoeste 0 995.8 1 45
2019-02-02 03:00:00 12 41 Oeste 67 Oeste 0 995.7 1.7 47
2019-02-02 02:00:00 11.8 41 Oeste 61 Oeste 0 995.1 1.7 45
2019-02-02 01:00:00 12 39 Oeste 61 Oeste 0 994.8 1.4 47
2019-02-02 00:00:00 12.4 38 Oeste 68 Oeste 0 994 0.7 46
2019-02-01 23:00:00 14.9 46 Sudoeste 68 Sudoeste 0.1 993.4 0.3 47
2019-02-01 22:00:00 15.2 41 Oeste 58 Oeste 0 993.4 1 43
2019-02-01 21:00:00 14.2 24 Sudoeste 45 Sudoeste 0 993.3 0.8 62
2019-02-01 20:00:00 14.5 14 Sudoeste 37 Oeste 0 993.1 0.9 72
2019-02-01 19:00:00 14.3 20 Oeste 39 Oeste 0 992.4 0.4 45
2019-02-01 18:00:00 15.5 30 Oeste 50 Oeste 0 992.5 0.5 40
2019-02-01 17:00:00 15.7 25 Sudoeste 35 Sudoeste 0 992.2 -0.4 71
2019-02-01 16:00:00 16 21 Sudoeste 42 Oeste -- 992 -1.2 80
2019-02-01 15:00:00 16.2 26 Oeste 54 Oeste 0 992 -1.4 62
2019-02-01 14:00:00 17 39 Sudoeste 59 Sudoeste 0 992.6 -1.4 78
2019-02-01 13:00:00 16.1 40 Sudoeste 59 Sudoeste 0 993.2 -1 80
2019-02-01 12:00:00 15.9 42 Sudoeste 67 Sudoeste 0 993.4 -1 80
2019-02-01 11:00:00 15.4 51 Sudoeste 76 Sudoeste 0 994 -0.4 81
2019-02-01 10:00:00 15.1 46 Sudoeste 71 Sudoeste 0.2 994.2 -0.4 82
2019-02-01 09:00:00 14.8 43 Sudoeste 65 Sudoeste 0.5 994.4 -0.8 83
2019-02-01 08:00:00 14.7 43 Sudoeste 67 Sudoeste 0.4 994.4 -1.6 84
2019-02-01 07:00:00 15.1 39 Sudoeste 55 Sudoeste 0 994.6 -2.4 82
2019-02-01 06:00:00 15.1 34 Sudoeste 55 Sudoeste 0 995.2 -2.6 82
2019-02-01 05:00:00 15 33 Sudoeste 50 Sudoeste 0 996 -2.4 83
2019-02-01 04:00:00 14.9 37 Sudoeste 54 Sudoeste 0 997 -2.3 82
2019-02-01 03:00:00 14.7 17 Sudoeste 37 Sudoeste 0 997.8 -1.9 84
2019-02-01 02:00:00 14.8 28 Sudoeste 37 Sudoeste 0 998.4 -1 80
2019-02-01 01:00:00 15.2 27 Sudoeste 41 Sudoeste 0 999.3 -0.1 79
2019-02-01 00:00:00 15.4 28 Sudoeste 45 Sudoeste 0 999.7 -0.2 76
2019-01-31 23:00:00 15.7 27 Sudoeste 45 Sudoeste 0 999.4 -0.5 72
2019-01-31 22:00:00 15.4 24 Sudoeste 33 Sudoeste 0 999.4 -0.7 78
2019-01-31 21:00:00 15.1 26 Sudoeste 41 Sudoeste 0 999.9 -0.1 82
2019-01-31 20:00:00 15.6 27 Oeste 45 Sudoeste 0 999.9 0.1 75
2019-01-31 19:00:00 15.3 29 Oeste 52 Oeste 0 1000.1 0.6 79
2019-01-31 18:00:00 15.6 40 Sudoeste 63 Sudoeste 0 1000 -0.1 77
2019-01-31 17:00:00 16.4 45 Oeste 61 Sudoeste 0 999.8 -0.7 73
2019-01-31 16:00:00 17.1 38 Sudoeste 50 Sudoeste 0 999.5 -2 71
2019-01-31 15:00:00 17.5 37 Sudoeste 48 Sudoeste 0 1000.1 -1.9 67
2019-01-31 14:00:00 17.6 39 Sudoeste 48 Sudoeste 0 1000.5 -1.3 66
2019-01-31 13:00:00 17.1 39 Sudoeste 54 Sudoeste 0 1001.5 0 67
2019-01-31 12:00:00 16.1 32 Sudoeste 50 Sudoeste 0 1002 0.3 71
2019-01-31 11:00:00 16.4 36 Sudoeste 48 Sudoeste 0 1001.8 0.5 68
2019-01-31 10:00:00 15.2 32 Sudoeste 45 Sudoeste 0 1001.5 0.4 70
2019-01-31 09:00:00 14.8 33 Sudoeste 46 Sudoeste 0 1001.7 0 71
2019-01-31 08:00:00 14.3 31 Sudoeste 46 Sudoeste 0 1001.3 -0.7 69
2019-01-31 07:00:00 13.9 32 Sudoeste 45 Sudoeste 0 1001.1 -1.9 70
2019-01-31 06:00:00 14.2 31 Sudoeste 46 Sudoeste 0 1001.7 -2.1 63
2019-01-31 05:00:00 14.3 31 Sudoeste 48 Sudoeste 0 1002 -2.4 60
2019-01-31 04:00:00 14.2 34 Sudoeste 46 Sudoeste 0 1003 -2 63
2019-01-31 03:00:00 13.9 31 Sudoeste 45 Oeste 0 1003.8 -1.9 63
2019-01-31 02:00:00 13.9 31 Sudoeste 42 Sudoeste 0 1004.4 -1.8 61
2019-01-31 01:00:00 14.1 24 Sudoeste 39 Oeste 0 1005 -1.6 42
2019-01-31 00:00:00 14.2 28 Sudoeste 45 Oeste 0 1005.7 -1.4 61
2019-01-30 23:00:00 14.1 33 Oeste 46 Sudoeste 0 1006.2 -1.2 39
2019-01-30 22:00:00 11.8 15 Oeste 26 Sudoeste 0 1006.6 -0.8 61
2019-01-30 21:00:00 8.7 7 Noroeste 11 Noroeste 0 1007.1 -0.3 71
2019-01-30 20:00:00 8.4 6 Noroeste 11 Noroeste 0 1007.4 0.1 68
2019-01-30 19:00:00 9.7 5 Norte 13 Sudoeste 0 1007.4 -0.2 62
2019-01-30 18:00:00 11.7 11 Sudoeste 21 Sudoeste 0 1007.4 -0.6 53
2019-01-30 17:00:00 14.6 3 Noroeste 28 Oeste 0 1007.3 -1.4 33
2019-01-30 16:00:00 14.6 18 Oeste 32 Oeste 0 1007.6 -1.7 41
2019-01-30 15:00:00 15.1 21 Oeste 32 Oeste 0 1008 -1.6 37
2019-01-30 14:00:00 15.3 22 Oeste 37 Oeste 0 1008.7 -0.9 41
2019-01-30 13:00:00 15.8 18 Oeste 35 Noroeste 0 1009.3 0 41
2019-01-30 12:00:00 14.2 12 Noroeste 26 Noroeste 0 1009.6 0.6 47
2019-01-30 11:00:00 13 10 Noroeste 21 Noroeste 0 1009.6 0.7 57
2019-01-30 10:00:00 10.5 5 Sudoeste 11 Noroeste 0 1009.3 1 75
2019-01-30 09:00:00 8.8 5 Oeste 11 Oeste 0 1009 0.9 82
2019-01-30 08:00:00 8.7 4 Norte 9 Oeste 0 1008.9 1 80
2019-01-30 07:00:00 7.9 7 Oeste 9 Oeste 0 1008.3 0.6 83
2019-01-30 06:00:00 7.8 6 Norte 9 Norte 0 1008.1 0.7 84
2019-01-30 05:00:00 8 0 Calma 11 Norte 0 1007.9 0.6 80
2019-01-30 04:00:00 8.4 5 Norte 8 Noroeste 0 1007.7 0.8 81
2019-01-30 03:00:00 9.2 2 Norte 8 Sudoeste 0 1007.4 0.9 73
2019-01-30 02:00:00 11.7 3 Sudoeste 26 Noroeste 0 1007.3 1.3 65
2019-01-30 01:00:00 13.4 18 Noroeste 54 Oeste 0 1006.9 1 57
2019-01-30 00:00:00 15 38 Oeste 71 Oeste 0 1006.5 1.1 53
2019-01-29 23:00:00 15.2 41 Oeste 63 Oeste 0 1006 0.4 50
2019-01-29 22:00:00 14.9 37 Oeste 58 Oeste 0 1005.9 -0.3 50
2019-01-29 21:00:00 14.7 35 Oeste 54 Oeste 0 1005.4 -1.1 49
2019-01-29 20:00:00 14.1 26 Oeste 42 Sudoeste 0 1005.6 -2.1 58
2019-01-29 19:00:00 13.4 21 Sudoeste 37 Oeste 0 1006.2 -1.9 64
2019-01-29 18:00:00 13.9 22 Sudoeste 32 Sudoeste 0 1006.5 -2.5 63
2019-01-29 17:00:00 13.9 23 Sudoeste 33 Sudoeste 0 1007.7 -2.4 54
2019-01-29 16:00:00 14.1 19 Sudoeste 41 Sudoeste 0 1008.1 -3.1 49
2019-01-29 15:00:00 14.5 19 Oeste 32 Oeste 0 1009 -3.2 45
2019-01-29 14:00:00 14.6 21 Oeste 33 Oeste 0 1010.1 -2 40
2019-01-29 13:00:00 14.8 18 Oeste 33 Oeste 0 1011.2 -1.4 49
2019-01-29 12:00:00 15.2 19 Oeste 28 Sudoeste 0 1012.2 -0.3 52
2019-01-29 11:00:00 14.7 9 Oeste 24 Noroeste 0 1012.1 -0.1 47
2019-01-29 10:00:00 12.3 4 Noroeste 9 Oeste 0 1012.6 0.7 61
2019-01-29 09:00:00 7.9 4 Sur 9 Oeste 0 1012.5 0.4 69
2019-01-29 08:00:00 7.6 5 Noroeste -- -- 0 1012.2 0.4 65
2019-01-29 07:00:00 9.9 13 Norte 22 Noroeste 0 1011.9 0 54
2019-01-29 06:00:00 8.8 2 Oeste 13 Noroeste 0 1012.1 0.4 61
2019-01-29 05:00:00 10.3 9 Sudoeste 26 Norte 0 1011.8 -0.1 54
2019-01-29 04:00:00 9.6 12 Noroeste 28 Noroeste 0 1011.9 0.2 62
2019-01-29 03:00:00 11.5 13 Noroeste 24 Noroeste 0 1011.7 0 51
2019-01-29 02:00:00 12.7 10 Noroeste 41 Norte 0 1011.9 1.1 44
2019-01-29 01:00:00 13.6 25 Norte 41 Norte 0 1011.7 -- 41
2019-01-29 00:00:00 14 28 Norte 58 Norte 0 1011.7 1.2 38
2019-01-28 23:00:00 14.1 31 Noroeste 54 Noroeste 0 1010.8 0.3 37
2019-01-28 22:00:00 14.1 31 Noroeste 58 Norte 0 -- -- 44
2019-01-28 21:00:00 15 40 Noroeste 68 Norte 0 1010.5 1.3 35
2019-01-28 20:00:00 14.9 28 Noroeste 58 Norte 0 1010.5 2.1 38
2019-01-28 19:00:00 14.4 24 Noroeste 42 Noroeste 0 1009.9 1.9 48
2019-01-28 18:00:00 14.9 20 Oeste 46 Noroeste 0 1009.2 1.4 51
2019-01-28 17:00:00 16.2 37 Oeste 58 Oeste 0 1008.4 -0.1 38
2019-01-28 16:00:00 16.2 45 Oeste 67 Oeste 0 1008 -1.1 35
2019-01-28 15:00:00 15.7 40 Oeste 67 Oeste 0 1007.8 -2.2 39
2019-01-28 14:00:00 15.6 49 Oeste 74 Oeste 0 1008.5 -1.8 39
2019-01-28 13:00:00 15.1 44 Oeste 67 Oeste 0 1009.1 -1.7 40
2019-01-28 12:00:00 14.1 44 Oeste 65 Oeste 0 1010 -1.2 46
2019-01-28 11:00:00 13.9 37 Oeste 52 Oeste 0 1010.3 -0.9 47
2019-01-28 10:00:00 13.3 32 Oeste 45 Oeste 0 1010.8 -0.2 44
2019-01-28 09:00:00 12.1 19 Oeste 35 Oeste 0 1011.2 0.2 46
2019-01-28 08:00:00 11.9 24 Oeste 39 Oeste 0 1011.2 0.1 46
2019-01-28 07:00:00 10.9 11 Oeste 41 Noroeste 0 1011 0 50
2019-01-28 06:00:00 12.4 25 Noroeste 39 Noroeste 0 1011 -0.2 41
2019-01-28 05:00:00 12.5 16 Noroeste 39 Oeste 0 1011.1 -0.4 41
2019-01-28 04:00:00 12.4 20 Oeste 45 Noroeste 0 1011 -0.8 47
2019-01-28 03:00:00 12.4 15 Noroeste 41 Noroeste 0 1011.2 -0.4 43
2019-01-28 02:00:00 12.5 24 Noroeste 41 Oeste 0 1011.5 0.1 42
2019-01-28 01:00:00 12.9 20 Noroeste 50 Noroeste 0 1011.8 0.6 36
2019-01-28 00:00:00 13.2 28 Noroeste 59 Noroeste 0 1011.6 1 36
2019-01-27 23:00:00 13.4 24 Noroeste 55 Norte 0 1011.4 1.2 38
2019-01-27 22:00:00 13.3 17 Noroeste 45 Norte 0 1011.2 1.7 41
2019-01-27 21:00:00 13.7 18 Noroeste 32 Noroeste 0 1010.6 1.7 41
2019-01-27 20:00:00 11 7 Noroeste 17 Noroeste 0 1010.2 1.8 61
2019-01-27 19:00:00 12 9 Oeste 17 Noroeste 0 1009.5 1.3 57
2019-01-27 18:00:00 14.1 10 Noroeste 26 Norte 0 1008.9 1.3 49
2019-01-27 17:00:00 15.5 14 Noroeste 37 Oeste 0 1008.4 1 50
2019-01-27 16:00:00 16.1 23 Noroeste 45 Noroeste 0 1008.2 0.8 50
2019-01-27 15:00:00 16.2 29 Noroeste 46 Noroeste 0 1007.6 -0.1 51
2019-01-27 14:00:00 16.8 29 Noroeste 48 Oeste 0 1007.4 0.2 46
2019-01-27 13:00:00 16.8 26 Noroeste 50 Oeste 0 1007.4 0.6 47
2019-01-27 12:00:00 16.1 33 Oeste 58 Oeste 0 1007.7 0.4 53
2019-01-27 11:00:00 15.8 44 Oeste 72 Oeste 0 1007.2 -0.1 49
2019-01-27 10:00:00 15.2 36 Oeste 59 Oeste 0 1006.8 -0.7 53
2019-01-27 09:00:00 13.7 25 Oeste 32 Sudoeste 0 1007.3 -0.5 74
2019-01-27 08:00:00 13.1 24 Oeste 35 Oeste 0 1007.3 -1 80
2019-01-27 07:00:00 13.3 30 Sudoeste 37 Oeste 0 1007.5 -1.9 81
2019-01-27 06:00:00 13.2 24 Oeste 33 Oeste 0 1007.8 -2.5 73
2019-01-27 05:00:00 13 12 Sudoeste 28 Sudoeste 0 1008.3 -2.3 80
2019-01-27 04:00:00 13.6 15 Sudoeste 32 Oeste 0 1009.4 -2.2 76
2019-01-27 03:00:00 13.2 21 Sudoeste 35 Sudoeste 0 1010.3 -2.1 79
2019-01-27 02:00:00 13.5 25 Sudoeste 33 Sudoeste 0 1010.6 -2.3 81
2019-01-27 01:00:00 13.8 17 Sudoeste 33 Sudoeste 0 1011.6 -1.8 83
2019-01-27 00:00:00 13.8 24 Sudoeste 35 Sudoeste 0 1012.4 -1.5 85
2019-01-26 23:00:00 13.9 24 Sudoeste 33 Sudoeste 0 1012.9 -1.5 86
2019-01-26 22:00:00 13.9 21 Sudoeste 33 Sudoeste 0 1013.4 -1.1 87
2019-01-26 21:00:00 13.7 21 Sudoeste 30 Sur 0 1013.9 -0.9 81
2019-01-26 20:00:00 13.6 19 Sudoeste 32 Sudoeste 0 1014.4 -1.1 81
2019-01-26 19:00:00 13.8 19 Sur 30 Sudoeste 0 1014.5 -1.3 78
2019-01-26 18:00:00 14.3 21 Sudoeste 30 Sudoeste 0 1014.8 -1.6 76
2019-01-26 17:00:00 15.3 22 Sudoeste 30 Sudoeste 0 1015.5 -2 70
2019-01-26 16:00:00 15.9 20 Sudoeste 28 Sudoeste 0 1015.8 -2.6 65
2019-01-26 15:00:00 16.2 21 Sudoeste 28 Sur 0 1016.4 -2.1 63
2019-01-26 14:00:00 16.2 15 Sudoeste 22 Sudoeste 0 1017.5 -0.6 64
2019-01-26 13:00:00 16.1 16 Sudoeste 22 Sudoeste 0 1018.4 0.5 62
2019-01-26 12:00:00 15.9 15 Sudoeste 22 Sudoeste 0 1018.5 0.8 62
2019-01-26 11:00:00 15 12 Sudoeste 17 Sudoeste 0 1018.1 0.8 64
2019-01-26 10:00:00 12.8 0 Calma 5 Sur 0 1017.9 1.4 70
2019-01-26 09:00:00 7.7 5 Oeste 11 Noroeste 0 1017.7 1.6 84
2019-01-26 08:00:00 7.9 5 Sur 13 Sur 0 1017.3 1.2 80
2019-01-26 07:00:00 8 9 Norte 18 Norte 0 1016.5 1.3 82
2019-01-26 06:00:00 8.8 5 Este 15 Norte 0 1016.1 1.3 81
2019-01-26 05:00:00 9.6 2 Noroeste 22 Sudeste 0 1016.1 1.3 77
2019-01-26 04:00:00 12.2 5 Sur 33 Norte 0 1015.2 0.6 63
2019-01-26 03:00:00 13.2 24 Norte 42 Norte 0 1014.8 0.7 60
2019-01-26 02:00:00 14.1 28 Norte 41 Norte 0 1014.8 1.6 53
2019-01-26 01:00:00 14.6 23 Norte 50 Norte 0 1014.6 1.5 49
2019-01-26 00:00:00 14.5 27 Noroeste 45 Noroeste 0 1014.1 1.2 54
2019-01-25 23:00:00 14.1 16 Noroeste 32 Noroeste 0 1013.2 0.6 63
2019-01-25 22:00:00 14.1 12 Noroeste 28 Noroeste 0 1013.1 1 61
2019-01-25 21:00:00 11.8 6 Oeste 22 Oeste 0 1012.9 0.9 76
2019-01-25 20:00:00 11.5 9 Oeste 21 Oeste 0 1012.6 0.6 79
2019-01-25 19:00:00 11.5 9 Oeste 21 Sudoeste 0 1012.1 0 78
2019-01-25 18:00:00 13.3 15 Sudoeste 22 Sudoeste 0 1012 -0.1 66
2019-01-25 17:00:00 14.3 13 Sudoeste 17 Sudoeste 0 1012 -0.4 58
2019-01-25 16:00:00 14.5 14 Sudoeste 22 Sur 0 1012.1 -0.6 53
2019-01-25 15:00:00 14.8 11 Sur 17 Sur 0 1012.1 -0.8 51
2019-01-25 14:00:00 14.6 10 Sur 17 Sur 0 1012.4 -0.2 48
2019-01-25 13:00:00 13.9 12 Sur 17 Sur 0 1012.7 0.5 51
2019-01-25 12:00:00 13.9 9 Sur 13 Sur 0 1012.9 1.3 51
2019-01-25 11:00:00 13.4 3 Sur 9 Sur 0 1012.6 1.7 49
2019-01-25 10:00:00 10.5 5 Sudoeste 8 Oeste 0 1012.2 1.7 64
2019-01-25 09:00:00 4.7 4 Sudeste 11 Norte 0 1011.6 1.5 79
2019-01-25 08:00:00 4 3 Noroeste 13 Noroeste 0 1010.9 1.1 77
2019-01-25 07:00:00 2.3 3 Oeste 9 Noroeste 0 1010.5 0.3 80
2019-01-25 06:00:00 4.1 6 Norte 9 Norte 0 1010.1 0.1 75
2019-01-25 05:00:00 4.9 9 Noroeste 13 Noroeste 0 1009.8 -0.1 69
2019-01-25 04:00:00 5.5 8 Noroeste 13 Noroeste 0 1010.2 0.6 65
2019-01-25 03:00:00 6.1 8 Norte 15 Noroeste 0 1010 1 62
2019-01-25 02:00:00 8.2 9 Noroeste 26 Norte 0 1009.9 1.5 48
2019-01-25 01:00:00 9.3 6 Norte 21 Norte 0 1009.6 1.1 45
2019-01-25 00:00:00 10.2 12 Norte 50 Norte 0 1009 0.7 41
2019-01-24 23:00:00 10.4 27 Norte 52 Norte 0 1008.4 0.3 40
2019-01-24 22:00:00 10.5 27 Norte 42 Norte 0 1008.5 1.2 36
2019-01-24 21:00:00 10 19 Norte 35 Norte 0 1008.3 1.8 39
2019-01-24 20:00:00 10.2 18 Norte 37 Norte 0 1008.1 2.5 37
2019-01-24 19:00:00 10.5 25 Norte 41 Norte 0 1007.3 2.6 36
2019-01-24 18:00:00 10.5 18 Norte 48 Noroeste 0 1006.5 2.4 35
2019-01-24 17:00:00 11.7 29 Norte 61 Noroeste 0 1005.6 1.7 30
2019-01-24 16:00:00 12.2 36 Norte 55 Noroeste 0 1004.7 0.6 28
2019-01-24 15:00:00 12.7 32 Norte 61 Noroeste 0 1004.1 0.1 29
2019-01-24 14:00:00 12.5 39 Norte 65 Norte 0 1003.9 0.5 29
2019-01-24 13:00:00 12.5 36 Norte 65 Norte 0 1004.1 1.8 32
2019-01-24 12:00:00 12.2 35 Norte 72 Norte 0 1004 2.5 31
2019-01-24 11:00:00 12.1 34 Norte 76 Norte 0 1003.4 2.5 32
2019-01-24 10:00:00 11.6 30 Norte 67 Noroeste 0 1002.3 2.8 35
2019-01-24 09:00:00 10.8 32 Norte 71 Norte 0 1001.5 1.6 39
2019-01-24 08:00:00 11.1 37 Norte 74 Noroeste 0 1000.9 1.5 44
2019-01-24 07:00:00 11.2 33 Noroeste 71 Norte 0 999.5 0.3 49
2019-01-24 06:00:00 11.8 37 Noroeste 78 Noroeste 0 999.9 -- 47
2019-01-24 05:00:00 12.2 45 Noroeste 74 Noroeste 0 999.4 0.3 45
2019-01-24 04:00:00 12.3 42 Norte 78 Noroeste 0 999.2 -0.4 45
2019-01-24 03:00:00 12.9 44 Noroeste 76 Noroeste 0 -- -- 46
2019-01-24 02:00:00 13.3 41 Noroeste 74 Noroeste 0 999.1 0.3 45
2019-01-24 01:00:00 13.7 42 Noroeste 71 Noroeste 0 999.6 0.6 44
2019-01-24 00:00:00 14.2 39 Noroeste 71 Norte 0 -- -- 47
2019-01-23 23:00:00 14.6 30 Noroeste 52 Norte 0 998.8 0.6 46
2019-01-23 22:00:00 15 24 Noroeste 46 Noroeste 0 999 0.7 49
2019-01-23 21:00:00 14.8 22 Noroeste 42 Norte 0 998.9 1.1 52
2019-01-23 20:00:00 13.6 12 Noroeste 22 Noroeste 0 998.2 0.8 64
2019-01-23 19:00:00 14.7 13 Noroeste 26 Noroeste 0 998.3 0.7 58
2019-01-23 18:00:00 15 13 Noroeste 35 Oeste 0 997.8 -0.1 57
2019-01-23 17:00:00 16.1 24 Oeste 50 Oeste 0 997.4 -0.6 57
2019-01-23 16:00:00 16.5 34 Oeste 54 Oeste 0 997.6 -1 48
2019-01-23 15:00:00 16.4 37 Oeste 65 Oeste 0 997.9 -1.9 49
2019-01-23 14:00:00 15.9 45 Oeste 82 Oeste 0 998 -2.3 48
2019-01-23 13:00:00 15.7 46 Oeste 71 Oeste 0 998.6 -1.6 47
2019-01-23 12:00:00 14 44 Oeste 61 Oeste 0 999.8 -1.2 51
2019-01-23 11:00:00 13.4 37 Oeste 63 Oeste 0 1000.3 -1.4 54
2019-01-23 10:00:00 13 44 Oeste 63 Oeste 0 1000.2 -2.3 56
2019-01-23 09:00:00 12.3 31 Oeste 52 Oeste 0 1001 -2.2 58
2019-01-23 08:00:00 12.3 30 Oeste 50 Oeste 0 1001.7 -1.9 58
2019-01-23 07:00:00 12 30 Oeste 50 Oeste 0 1002.5 -1.4 61
2019-01-23 06:00:00 11.1 22 Oeste 39 Oeste 0 1003.2 -1.4 64
2019-01-23 05:00:00 10.6 19 Oeste 37 Oeste 0 1003.6 -1.3 61
2019-01-23 04:00:00 11 20 Oeste 35 Oeste 0 1003.9 -1.6 56
2019-01-23 03:00:00 10.6 16 Oeste 37 Oeste 0 1004.6 -1.5 59
2019-01-23 02:00:00 10.9 22 Oeste 37 Oeste 0 1004.9 -1.4 58
2019-01-23 01:00:00 11.1 19 Oeste 39 Oeste 0 1005.5 -1.3 56
2019-01-23 00:00:00 11.6 24 Oeste 46 Oeste 0 1006.1 -1.3 56
2019-01-22 23:00:00 11.7 24 Oeste 39 Oeste 0 1006.3 -1.3 55
2019-01-22 22:00:00 11.3 24 Oeste 45 Oeste 0 1006.8 -1 58
2019-01-22 21:00:00 11.4 14 Oeste 35 Oeste 0 1007.4 -0.8 55
2019-01-22 20:00:00 12.1 23 Oeste 37 Oeste 0 1007.6 -1 48
2019-01-22 19:00:00 10.5 10 Oeste 22 Oeste 0 1007.8 -1.4 51
2019-01-22 18:00:00 10.4 13 Oeste 22 Oeste 0 1008.2 -1.6 54
2019-01-22 17:00:00 10.8 12 Oeste 28 Oeste 0 1008.6 -2.2 44
2019-01-22 16:00:00 11.3 16 Oeste 33 Oeste 0 1009.2 -2.8 46
2019-01-22 15:00:00 11.5 18 Oeste 32 Oeste 0 1009.8 -3.2 47
2019-01-22 14:00:00 11.6 20 Oeste 30 Oeste 0 1010.8 -2.9 46
2019-01-22 13:00:00 11.8 19 Oeste 32 Oeste 0 1012 -1.7 47
2019-01-22 12:00:00 11.8 17 Oeste 28 Oeste 0 1013 -0.9 47
2019-01-22 11:00:00 11.1 15 Oeste 30 Noroeste 0 1013.7 -0.4 49
2019-01-22 10:00:00 9.6 11 Oeste 17 Oeste 0 1013.7 -0.2 57
2019-01-22 09:00:00 4.2 0 Calma 8 Oeste 0 1013.9 -0.2 81
2019-01-22 08:00:00 2.8 5 Sudoeste 11 Oeste 0 1014.1 -0.5 85
2019-01-22 07:00:00 2.7 5 Norte 11 Noroeste 0 1013.9 -1 84
2019-01-22 06:00:00 4 10 Norte 15 Norte 0 1014.1 -1.4 83
2019-01-22 05:00:00 3.8 5 Noroeste 8 Noroeste 0 1014.6 -1 86
2019-01-22 04:00:00 2.9 0 Calma 5 Noroeste 0 1014.9 -1.3 90
2019-01-22 03:00:00 3.5 2 Noroeste 11 Noroeste 0 1015.5 -1.1 88
2019-01-22 02:00:00 4.3 8 Oeste 13 Noroeste 0 1015.6 -0.8 85
2019-01-22 01:00:00 4.1 3 Nordeste 8 Noroeste 0 1016.2 -0.2 89
2019-01-22 00:00:00 4.3 3 Oeste 13 Noroeste 0 1016.6 0.3 88
2019-01-21 23:00:00 5.3 4 Norte 11 Noroeste 0 1016.4 0.2 88
2019-01-21 22:00:00 5.4 0 Calma 9 Oeste 0 1016.4 0.4 86
2019-01-21 21:00:00 6.5 5 Noroeste 9 Noroeste 0 1016.3 0.5 86
2019-01-21 20:00:00 7 4 Noroeste 11 Noroeste 0 1016.2 0.6 85
2019-01-21 19:00:00 7.6 8 Norte 15 Norte 0 1016 0.7 81
2019-01-21 18:00:00 9.9 9 Este 15 Este 0 1015.8 0.7 74
2019-01-21 17:00:00 11.4 7 Este 17 Este 0 1015.6 0.5 63
2019-01-21 16:00:00 11.3 12 Este 18 Nordeste 0 1015.3 -0.5 69
2019-01-21 15:00:00 11.7 12 Oeste 22 Norte 0 1015.1 -0.8 72
2019-01-21 14:00:00 11.5 12 Norte 28 Noroeste 2.7 1015.1 -0.6 73
2019-01-21 13:00:00 11.5 20 Noroeste 35 Noroeste 0.1 1015.8 0.6 65
2019-01-21 12:00:00 12.3 14 Noroeste 28 Norte 0 1015.9 1.3 63
2019-01-21 11:00:00 12.8 14 Norte 24 Norte 0 1015.7 1.5 58
2019-01-21 10:00:00 9.3 4 Nordeste 18 Nordeste 0 1015.2 1.7 77
2019-01-21 09:00:00 9.6 8 Noroeste 15 Norte 0 1014.6 1.6 78
2019-01-21 08:00:00 9.7 9 Norte 24 Noroeste 0 1014.2 1.5 71
2019-01-21 07:00:00 8.6 9 Noroeste 13 Noroeste 0 1013.5 0.8 75
2019-01-21 06:00:00 9.5 2 Oeste 22 Norte 0 1013 0.7 70
2019-01-21 05:00:00 9.9 12 Norte 22 Norte 0 1012.7 0.9 71
2019-01-21 04:00:00 10.4 12 Noroeste 35 Norte 0 1012.7 1.3 69
2019-01-21 03:00:00 10.8 18 Norte 39 Norte 0 1012.3 1 65
2019-01-21 02:00:00 11 19 Norte 46 Norte 0 1011.8 1.2 64
2019-01-21 01:00:00 11.2 33 Norte 54 Norte 0 1011.4 1.2 63
2019-01-21 00:00:00 11.2 33 Norte 54 Norte 0.1 1011.3 1.8 65
2019-01-20 23:00:00 10.6 19 Norte 42 Norte 0 1010.6 1.8 70
2019-01-20 22:00:00 10.6 25 Norte 46 Norte 0 1010.2 2.6 77
2019-01-20 21:00:00 10.1 26 Norte 55 Norte 0.1 1009.5 2.2 80
2019-01-20 20:00:00 10.3 27 Norte 50 Norte 0.1 1008.8 2 84
2019-01-20 19:00:00 10.6 29 Norte 48 Norte 0 1007.6 1.2 79
2019-01-20 18:00:00 10.8 23 Norte 37 Norte 0 1007.3 1.4 77
2019-01-20 17:00:00 10.8 19 Norte 42 Norte 0 1006.8 0.7 72
2019-01-20 16:00:00 11.4 29 Norte 52 Norte 0 1006.4 0.1 69
2019-01-20 15:00:00 11.8 31 Norte 48 Noroeste 0 1005.9 -0.7 67
2019-01-20 14:00:00 12 22 Norte 41 Norte 0 1006.1 -0.1 68
2019-01-20 13:00:00 13.4 13 Norte 35 Noroeste 0 1006.3 0.4 73
2019-01-20 12:00:00 14.3 18 Noroeste 35 Noroeste 0 1006.6 1 67
2019-01-20 11:00:00 13.9 5 Oeste 9 Oeste 0 1006.2 0.6 73
2019-01-20 10:00:00 12.5 4 Oeste 13 Oeste 0 1005.9 0.2 82
2019-01-20 09:00:00 12.7 15 Oeste 24 Sudoeste 0 1005.6 -0.4 77
2019-01-20 08:00:00 12.4 16 Sudoeste 22 Oeste 0 1005.6 -1.1 81
2019-01-20 07:00:00 12.3 11 Sudoeste 21 Sudoeste 0 1005.7 -2 80
2019-01-20 06:00:00 12.2 14 Sudoeste 24 Sudoeste 0.1 1006 -2.4 77
2019-01-20 05:00:00 12 13 Sudoeste 32 Sudoeste 0.1 1006.7 -2.3 81
2019-01-20 04:00:00 12.7 18 Sudoeste 32 Sudoeste 0 1007.7 -2.2 76
2019-01-20 03:00:00 13.2 20 Sur 33 Sudoeste 0 1008.4 -2.1 75
2019-01-20 02:00:00 13.3 22 Sudoeste 35 Sudoeste 0 1009 -2 70
2019-01-20 01:00:00 13.1 21 Sudoeste 33 Sudoeste 0 1009.9 -1.6 68
2019-01-20 00:00:00 12.9 23 Sudoeste 35 Sudoeste 0 1010.5 -1.5 66
2019-01-19 23:00:00 12.6 22 Sudoeste 30 Sudoeste 0 1011 -1.3 61
2019-01-19 22:00:00 11.8 18 Sudoeste 26 Sur 0 1011.5 -0.9 62
2019-01-19 21:00:00 7.3 7 Sudoeste 21 Sudoeste 0 1012 -0.5 80
2019-01-19 20:00:00 7.2 4 Noroeste 8 Norte 0 1012.3 -0.2 82
2019-01-19 19:00:00 9.8 8 Sudoeste 13 Sudoeste 0 1012.4 -0.3 70
2019-01-19 18:00:00 10.6 9 Sudoeste 17 Sudoeste 0 1012.5 -0.4 69
2019-01-19 17:00:00 12.6 13 Sudoeste 22 Sudoeste 0 1012.5 -0.9 57
2019-01-19 16:00:00 14.1 10 Sudoeste 17 Sudeste 0 1012.7 -1.7 51
2019-01-19 15:00:00 13.6 9 Sur 15 Sur 0 1012.9 -2.2 59
2019-01-19 14:00:00 13.9 7 Sur 15 Sudeste 0 1013.4 -1.6 56
2019-01-19 13:00:00 13.1 8 Sur 13 Este 0 1014.4 -0.1 56
2019-01-19 12:00:00 13.1 9 Este 15 Este 0.1 1015.1 1.2 57
2019-01-19 11:00:00 12.7 10 Norte 17 Norte 0 1015 1.4 57
2019-01-19 10:00:00 10.2 3 Nordeste 13 Nordeste 0 1014.5 1.3 80
2019-01-19 09:00:00 5.1 0 Calma 5 Norte 0 1013.9 0.8 92
2019-01-19 08:00:00 4 0 Calma 5 Noroeste 0 1013.6 0.3 92
2019-01-19 07:00:00 5 5 Norte 9 Noroeste 0 1013.2 -0.5 91
2019-01-19 06:00:00 4.9 2 Oeste 9 Norte 0 1013.1 -1.1 92
2019-01-19 05:00:00 5.6 4 Noroeste 11 Norte 0 1013.3 -1.2 91
2019-01-19 04:00:00 6.5 8 Noroeste 11 Noroeste 0 1013.7 -1.2 89
2019-01-19 03:00:00 7.4 9 Norte 22 Nordeste 0 1014.2 -1.3 86
2019-01-19 02:00:00 8.3 19 Norte 32 Noroeste 1.5 1014.5 -1.1 85
2019-01-19 01:00:00 7.4 7 Norte 9 Norte 0 1014.9 -0.5 87
2019-01-19 00:00:00 6.7 5 Norte 9 Noroeste 0 1015.5 0.2 85